Strona główna
METAR-TAF:

METAR-TAF

Lotnisko :

Platforma wiertnicza

P11-b, Holandia

Szerokość geograficzna: 52-21-36N, Długość geograficzna: 3-20-30E, wysokość: 24 m

Aktualna obserwacja pogody

Raport powstał 27 minut temu, godzina 10:55 UTC
Wiatr 17 kt od południowo-południowy zachód
Temperatura 17°C
Wilgotność 94%
Ciśnienie 1009 hPa
Widzialność 10 km lub więcej
Mało chmury na wysokości 600 ft

METAR: EHPG 181055Z AUTO 21017KT 9999 FEW006 17/16 Q1009 W///H///

czas: 13:22 (11:22 UTC)


TAF: brakujący

Obserwacja i prognoza pogody dla ponad 4000 lotnisk (raport METAR i TAF).

Dostępne stacje oznaczono żółtymi i czerwonymi punktami na mapie.

Najedź kursorem aby zobaczyć nazwę stacji.

Kliknij aby zobaczyć obserwacje i prognozy pogody.

Aby zmienić mapę: kliknij na zielony przycisk z czarnym krzyżykiem, aby powiększyć; na zielony przycisk z myślnikiem, aby pomniejszyć; na zielone strzałki, aby przejść do map sąsiednich.


METAR-TAF: